TimeCST,TemperatureF,Dew PointF,Humidity,Sea Level PressureIn,VisibilityMPH,Wind Direction,Wind SpeedMPH,Gust SpeedMPH,PrecipitationIn,Events,Conditions,WindDirDegrees,DateUTC
12:52 AM,39.9,27.0,60,30.20,10.0,North,12.7,-,N/A,,Mostly Cloudy,350,2011-11-17 06:52:00
1:52 AM,39.0,26.1,60,30.21,10.0,North,6.9,-,N/A,,Scattered Clouds,360,2011-11-17 07:52:00
2:52 AM,36.0,26.1,67,30.22,10.0,NNW,6.9,-,N/A,,Scattered Clouds,340,2011-11-17 08:52:00
3:52 AM,33.1,25.0,72,30.23,10.0,NNW,6.9,-,N/A,,Clear,330,2011-11-17 09:52:00
4:52 AM,37.0,26.1,65,30.26,10.0,NNW,9.2,-,N/A,,Overcast,340,2011-11-17 10:52:00
5:52 AM,37.0,26.1,65,30.29,10.0,NNW,12.7,-,N/A,,Overcast,340,2011-11-17 11:52:00
6:52 AM,37.0,30.9,79,30.32,10.0,North,9.2,-,N/A,,Overcast,350,2011-11-17 12:52:00
7:52 AM,37.9,32.0,79,30.34,10.0,NNW,6.9,-,N/A,,Clear,340,2011-11-17 13:52:00
8:52 AM,41.0,30.0,65,30.34,10.0,North,8.1,-,N/A,,Clear,350,2011-11-17 14:52:00
9:52 AM,44.1,26.1,49,30.36,10.0,NW,6.9,-,N/A,,Clear,320,2011-11-17 15:52:00
10:52 AM,45.0,23.0,42,30.35,10.0,North,8.1,-,N/A,,Clear,350,2011-11-17 16:52:00
11:52 AM,46.0,19.0,34,30.34,10.0,NNW,10.4,-,N/A,,Clear,340,2011-11-17 17:52:00
12:52 PM,46.9,18.0,32,30.33,10.0,WNW,11.5,19.6,N/A,,Clear,300,2011-11-17 18:52:00
1:52 PM,48.0,19.0,32,30.33,10.0,NNW,12.7,-,N/A,,Clear,330,2011-11-17 19:52:00
2:52 PM,48.0,17.1,29,30.33,10.0,NW,13.8,19.6,N/A,,Clear,310,2011-11-17 20:52:00
3:52 PM,46.9,18.0,32,30.35,10.0,NW,9.2,-,N/A,,Clear,320,2011-11-17 21:52:00
4:52 PM,43.0,19.9,40,30.35,10.0,NNW,4.6,-,N/A,,Clear,330,2011-11-17 22:52:00
5:52 PM,42.1,21.0,43,30.36,10.0,North,3.5,-,N/A,,Clear,350,2011-11-17 23:52:00
6:52 PM,37.9,23.0,55,30.37,10.0,North,3.5,-,N/A,,Clear,10,2011-11-18 00:52:00
7:52 PM,36.0,21.9,57,30.39,10.0,Calm,Calm,-,N/A,,Clear,0,2011-11-18 01:52:00
8:52 PM,34.0,23.0,64,30.39,10.0,Calm,Calm,-,N/A,,Clear,0,2011-11-18 02:52:00
9:52 PM,33.1,26.1,75,30.40,10.0,Calm,Calm,-,N/A,,Clear,0,2011-11-18 03:52:00
10:52 PM,30.0,26.1,85,30.39,10.0,Calm,Calm,-,N/A,,Clear,0,2011-11-18 04:52:00
11:52 PM,28.0,23.0,81,30.38,10.0,Calm,Calm,-,N/A,,Clear,0,2011-11-18 05:52:00